KMTO/MTO METAR and TAF weather

Enter ICAO airport designator
Station Type Date Time Source
KMTO METAR 2023/02/04 02:53 UTC NOAA

KMTO 040253Z AUTO 12003KT 10SM CLR M10/M14 A3051 RMK AO2 SLP346 T11001139 58015


Station Type Date Time Source
KMTO Decoded METAR 2023/02/04 02:53 UTC NOAA

MATTOON/CHARLESTON COLES CO, IL, United States (KMTO) 39-28N 88-16W 214M
Feb 03, 2023 - 09:53 PM EST / 2023.02.04 0253 UTC
Wind: from the ESE (120 degrees) at 3 MPH (3 KT):0
Visibility: 10 mile(s):0
Sky conditions: clear
Temperature: 14.0 F (-10.0 C)
Dew Point: 7.0 F (-13.9 C)
Relative Humidity: 73%
Pressure (altimeter): 30.51 in. Hg (1033 hPa)
Pressure tendency: 0.04 inches (1.5 hPa) lower than three hours ago
ob: KMTO 040253Z AUTO 12003KT 10SM CLR M10/M14 A3051 RMK AO2 SLP346 T11001139 58015
cycle: 3

Station Type Date Time Source
KMTO TAF UTC NOAA

Error!

Example: see airport list